Estación Meteorológica Peña el Pijo (Robertgarden) [ 07/20/18 16:46:34 CEST ]

Fecha Hora Presion(HPa) Temp (°C) Humedad % Rocio (°C) Viento ( m/s) Direccion Lluvia 1Hora(mm) Lluvia 24H(mm) LLuvia Total(mm)
2018-Mar-14 01:01:37 1007.000 9.2 70 4.0       1.03 146.59
2018-Mar-14 02:02:14 1006.800 7.8 72 3.1       1.03 146.59
2018-Mar-14 03:02:19 1006.300 6.2 73 1.7       1.03 146.59
2018-Mar-14 04:02:02 1005.400 5.7 75 1.6       1.03 146.59
2018-Mar-14 05:01:41 1004.800 4.8 75 0.7       1.03 146.59
2018-Mar-14 06:01:47 1004.600 4.4 75 0.3       1.03 146.59
2018-Mar-14 07:01:43 1004.500 5.0 77 1.3       1.03 146.59
2018-Mar-14 08:01:44 1004.500 5.8 79 2.4       1.03 146.59
2018-Mar-14 09:01:35 1004.600 9.1 74 4.7       1.03 146.59
2018-Mar-14 10:01:54 1004.000 10.7 70 5.5         146.59
2018-Mar-14 11:01:46 1003.200 12.1 65 5.7         146.59
2018-Mar-14 12:01:28 1002.400 14.4 60 6.8         146.59
2018-Mar-14 13:01:33 1001.900 15.4 53 5.8 2.2 NNE     146.59
2018-Mar-14 14:01:36 1001.100 15.8 54 6.5         146.59
2018-Mar-14 15:01:46 999.200 15.9 54 6.6         146.59
2018-Mar-14 16:01:41 997.800 17.9 41 4.4         146.59
2018-Mar-14 17:01:48 997.500 15.2 48 4.2         146.59
2018-Mar-14 18:01:31 996.700 14.8 49 4.2         146.59
2018-Mar-14 19:01:45 996.500 13.0 53 3.6 0.1 NW     146.59
2018-Mar-14 20:01:52 995.900 12.1 59 4.3 2.2 WNW     146.59
2018-Mar-14 21:01:48 995.200 11.5 59 3.7 0.9 NNW     146.59
2018-Mar-14 22:01:44 994.800 11.4 65 5.0 1.8 NW     146.59
2018-Mar-14 23:01:31 994.300 11.2 66 5.1 3.3 WNW     146.59

Temperatura Máxima:17°    Temperatura Mínima:
Presión Máxima:1007.000 Hpa    Presión Mínima:994.300 Hpa


Volver